This is the latest recevied weather packets stored in our database for station/object YO8RIX. If no packets are shown the sender has not sent any weather packets the latest 10 day(s).
| Time | Temp. | Humidity | Pressure | Rain* | Wind** | Luminosity | Snow |
|---|---|---|---|---|---|---|---|
| 1777455332 | 9.44° C | 41% | 1023.6 hPa | 0 mm | - | 341 W/m² | - |
| 1777452916 | 9.44° C | 40% | 1023.6 hPa | 0 mm | - | 302 W/m² | - |
| 1777449374 | 8.89° C | 44% | 1023.6 hPa | 0 mm | - | 393 W/m² | - |
| 1777444544 | 7.78° C | 47% | 1023.4 hPa | 0 mm | - | 198 W/m² | - |
| 1777442736 | 7.22° C | 49% | 1023.4 hPa | 0 mm | - | 240 W/m² | - |
| 1777442128 | 7.22° C | 50% | 1023.4 hPa | 0 mm | - | 206 W/m² | - |
| 1777439737 | 6.11° C | 55% | 1023.4 hPa | 0 mm | - | 140 W/m² | - |
| 1777436732 | 4.44° C | 59% | 1023.1 hPa | 0 mm | - | 56 W/m² | - |
| 1777434922 | 4.44° C | 56% | 1023 hPa | 0 mm | - | 27 W/m² | - |
| 1777434318 | 4.44° C | 54% | 1023 hPa | 0 mm | - | 21 W/m² | - |
| 1777431319 | 5° C | 55% | 1022.7 hPa | 0 mm | - | 1 W/m² | - |
| 1777430736 | 5° C | 54% | 1022.7 hPa | 0 mm | - | 0 W/m² | - |
| 1777428320 | 5.56° C | 55% | 1022.7 hPa | 0 mm | - | 0 W/m² | - |
| 1777425923 | 5.56° C | 51% | 1022.8 hPa | 0 mm | - | 0 W/m² | - |
| 1777421132 | 6.67° C | 52% | 1022.8 hPa | 0 mm | - | 0 W/m² | - |
| 1777418134 | 7.22° C | 48% | 1022.7 hPa | 0 mm | - | 0 W/m² | - |
| 1777416321 | 7.22° C | 48% | 1022.7 hPa | 0 mm | - | 0 W/m² | - |
| 1777412738 | 7.78° C | 46% | 1022.8 hPa | 0 mm | - | 0 W/m² | - |
| 1777410927 | 8.33° C | 45% | 1022.6 hPa | 0 mm | - | 0 W/m² | - |
| 1777409156 | 8.33° C | 46% | 1022.4 hPa | 0 mm | - | 0 W/m² | - |
| 1777396561 | 11.11° C | 36% | 1020.6 hPa | 0 mm | - | 3 W/m² | - |
| 1777388122 | 13.89° C | 36% | 1019.7 hPa | 0 mm | - | 111 W/m² | - |
| 1777382728 | 13.89° C | 38% | 1019.7 hPa | 0 mm | - | 305 W/m² | - |
| 1777382124 | 13.89° C | 37% | 1019.8 hPa | 0 mm | - | 208 W/m² | - |
| 1777380937 | 13.89° C | 38% | 1020 hPa | 0 mm | - | 398 W/m² | - |
* Rain latest hour (hover to see other rain measurements)
** Current wind speed in m/s (hover to see current wind gust speed)